createdAt,value
2023-04-29T00:01:59.357Z,8.77
2023-04-29T00:04:27.814Z,7.13
2023-04-29T00:06:55.860Z,8.63
2023-04-29T00:09:23.764Z,8.67
2023-04-29T00:11:53.042Z,7.37
2023-04-29T00:14:21.174Z,9.33
2023-04-29T00:16:49.184Z,5.47
2023-04-29T00:19:18.405Z,6.00
2023-04-29T00:21:46.307Z,6.60
2023-04-29T00:24:14.187Z,5.60
2023-04-29T00:26:42.279Z,5.73
2023-04-29T00:29:11.545Z,5.97
2023-04-29T00:31:39.482Z,9.60
2023-04-29T00:34:07.422Z,6.60
2023-04-29T00:36:35.297Z,6.50
2023-04-29T00:39:03.340Z,6.37
2023-04-29T00:41:32.084Z,8.07
2023-04-29T00:43:59.956Z,6.27
2023-04-29T00:46:29.331Z,6.17
2023-04-29T00:48:57.335Z,9.60
2023-04-29T00:51:25.529Z,7.67
2023-04-29T00:53:53.480Z,7.97
2023-04-29T00:56:22.178Z,9.03
2023-04-29T00:58:51.888Z,5.90
2023-04-29T01:01:21.828Z,6.43
2023-04-29T01:03:51.297Z,6.30
2023-04-29T01:06:31.267Z,7.40
2023-04-29T01:09:11.019Z,7.60
2023-04-29T01:11:46.405Z,9.53
2023-04-29T01:14:14.424Z,5.17
2023-04-29T01:16:47.301Z,7.37
2023-04-29T01:19:35.291Z,6.03
2023-04-29T01:22:03.201Z,8.07
2023-04-29T01:24:32.649Z,6.77
2023-04-29T01:27:04.873Z,6.67
2023-04-29T01:29:36.915Z,5.87
2023-04-29T01:32:11.668Z,8.77
2023-04-29T01:34:44.008Z,6.77
2023-04-29T01:37:17.517Z,7.00
2023-04-29T01:39:54.282Z,6.00
2023-04-29T01:42:25.948Z,6.10
2023-04-29T01:44:56.821Z,6.70
2023-04-29T01:47:25.137Z,7.03
2023-04-29T01:49:53.191Z,8.40
2023-04-29T01:52:21.402Z,6.90
2023-04-29T01:54:50.679Z,7.47
2023-04-29T01:57:19.171Z,10.83
2023-04-29T01:59:47.110Z,5.43
2023-04-29T02:02:15.952Z,5.90
2023-04-29T02:04:44.346Z,6.77
2023-04-29T02:07:12.277Z,7.20
2023-04-29T02:09:40.226Z,8.70
2023-04-29T02:12:09.582Z,5.73
2023-04-29T02:14:38.095Z,5.93
2023-04-29T02:17:06.178Z,5.57
2023-04-29T02:19:34.087Z,5.83
2023-04-29T02:22:02.106Z,9.47
2023-04-29T02:24:30.280Z,7.60
2023-04-29T02:26:59.152Z,6.87
2023-04-29T02:29:29.949Z,5.60
2023-04-29T02:31:57.880Z,6.03
2023-04-29T02:34:25.795Z,7.13
2023-04-29T02:36:53.700Z,6.97
2023-04-29T02:39:21.698Z,7.73
2023-04-29T02:41:49.616Z,6.27
2023-04-29T02:44:17.565Z,7.57
2023-04-29T02:46:46.848Z,7.27
2023-04-29T02:49:14.958Z,6.87
2023-04-29T02:51:42.852Z,6.87
2023-04-29T02:54:11.469Z,6.50
2023-04-29T02:56:39.376Z,5.93
2023-04-29T02:59:07.325Z,8.00
2023-04-29T03:01:35.297Z,7.97
2023-04-29T03:04:04.922Z,8.47
2023-04-29T03:06:33.136Z,7.93
2023-04-29T03:09:01.102Z,5.73
2023-04-29T03:11:29.044Z,6.37
2023-04-29T03:13:57.479Z,8.43
2023-04-29T03:16:25.609Z,7.10
2023-04-29T03:18:53.561Z,8.10
2023-04-29T03:21:22.872Z,8.60
2023-04-29T03:23:50.768Z,9.63
2023-04-29T03:26:18.789Z,8.63
2023-04-29T03:28:46.876Z,8.80
2023-04-29T03:31:16.574Z,5.90
2023-04-29T03:33:46.751Z,13.10
2023-04-29T03:36:15.389Z,7.43
2023-04-29T03:38:44.681Z,9.87
2023-04-29T03:41:12.658Z,12.50
2023-04-29T03:43:40.587Z,9.47
2023-04-29T03:46:08.695Z,8.30
2023-04-29T03:48:36.981Z,6.70
2023-04-29T03:51:05.241Z,6.23
2023-04-29T03:53:33.610Z,7.87
2023-04-29T03:56:02.964Z,9.97
2023-04-29T03:58:30.865Z,9.07
2023-04-29T04:00:58.792Z,9.23
2023-04-29T04:03:28.285Z,7.37
2023-04-29T04:05:56.355Z,10.23
2023-04-29T04:08:24.243Z,8.00
2023-04-29T04:10:52.128Z,11.73
2023-04-29T04:13:22.163Z,9.33
2023-04-29T04:15:53.139Z,10.30
2023-04-29T04:18:21.028Z,10.20
2023-04-29T04:20:48.984Z,9.60
2023-04-29T04:23:16.883Z,8.27
2023-04-29T04:25:47.163Z,11.30
2023-04-29T04:28:15.106Z,11.07
2023-04-29T04:30:45.070Z,11.83
2023-04-29T04:33:12.957Z,13.00
2023-04-29T04:35:40.870Z,8.07
2023-04-29T04:38:09.360Z,7.13
2023-04-29T04:40:37.322Z,8.13
2023-04-29T04:43:05.214Z,8.93
2023-04-29T04:45:33.165Z,9.00
2023-04-29T04:48:02.609Z,9.77
2023-04-29T04:50:31.112Z,11.50
2023-04-29T04:52:59.100Z,9.90
2023-04-29T04:55:27.203Z,12.47
2023-04-29T04:57:55.126Z,8.10
2023-04-29T05:00:23.086Z,11.23
2023-04-29T05:02:51.331Z,6.13
2023-04-29T05:05:20.901Z,11.87
2023-04-29T05:07:48.809Z,9.37
2023-04-29T05:10:16.679Z,10.40
2023-04-29T05:12:44.612Z,7.73
2023-04-29T05:15:14.974Z,7.13
2023-04-29T05:17:42.925Z,11.43
2023-04-29T05:20:11.537Z,11.67
2023-04-29T05:22:43.571Z,12.00
2023-04-29T05:25:11.708Z,13.67
2023-04-29T05:27:40.183Z,10.37
2023-04-29T05:30:09.139Z,8.73
2023-04-29T05:32:37.307Z,8.47
2023-04-29T05:35:07.403Z,9.27
2023-04-29T05:37:35.707Z,8.70
2023-04-29T05:40:05.777Z,10.93
2023-04-29T05:42:33.684Z,9.77
2023-04-29T05:45:01.666Z,12.57
2023-04-29T05:47:29.578Z,11.40
2023-04-29T05:49:57.550Z,8.17
2023-04-29T05:52:25.551Z,9.53
2023-04-29T05:54:53.424Z,5.97
2023-04-29T05:57:24.775Z,8.73
2023-04-29T05:59:55.209Z,9.40
2023-04-29T06:02:23.545Z,8.73
2023-04-29T06:04:51.720Z,11.80
2023-04-29T06:07:20.293Z,9.47
2023-04-29T06:09:48.442Z,9.97
2023-04-29T06:12:16.378Z,9.03
2023-04-29T06:14:45.651Z,9.77
2023-04-29T06:17:13.576Z,7.87
2023-04-29T06:19:41.454Z,11.00
2023-04-29T06:22:09.423Z,9.40
2023-04-29T06:24:37.355Z,8.70
2023-04-29T06:27:05.714Z,10.30
2023-04-29T06:29:33.786Z,10.07
2023-04-29T06:32:03.428Z,10.93
2023-04-29T06:34:32.010Z,9.90
2023-04-29T06:36:59.938Z,9.60
2023-04-29T06:39:27.834Z,9.70
2023-04-29T06:41:56.641Z,11.10
2023-04-29T06:44:24.671Z,10.57
2023-04-29T06:46:52.912Z,11.83
2023-04-29T06:49:22.416Z,10.53
2023-04-29T06:51:50.470Z,11.50
2023-04-29T06:54:18.368Z,12.57
2023-04-29T06:56:47.329Z,10.50
2023-04-29T07:02:06.234Z,11.60
2023-04-29T07:04:37.605Z,8.93
2023-04-29T07:07:05.749Z,8.80
2023-04-29T07:09:34.261Z,11.80
2023-04-29T07:12:05.432Z,13.23
2023-04-29T07:14:33.387Z,12.60
2023-04-29T07:17:01.304Z,12.53
2023-04-29T07:19:29.222Z,10.83
2023-04-29T07:21:58.624Z,9.40
2023-04-29T07:24:26.640Z,12.50
2023-04-29T07:26:54.600Z,10.07
2023-04-29T07:29:22.517Z,10.37
2023-04-29T07:31:50.406Z,9.87
2023-04-29T07:34:18.391Z,9.97
2023-04-29T07:37:02.888Z,10.47
2023-04-29T07:39:34.306Z,9.87
2023-04-29T07:42:05.251Z,11.60
2023-04-29T07:44:33.190Z,11.63
2023-04-29T07:47:01.108Z,8.93
2023-04-29T07:49:29.096Z,9.10
2023-04-29T07:51:57.010Z,11.10
2023-04-29T07:54:27.791Z,8.17
2023-04-29T07:56:55.741Z,6.30
2023-04-29T07:59:23.657Z,10.10
2023-04-29T08:01:52.384Z,8.50
2023-04-29T08:04:20.602Z,6.93
2023-04-29T08:06:48.991Z,6.37
2023-04-29T08:09:17.195Z,5.67
2023-04-29T08:11:46.700Z,7.33
2023-04-29T08:14:14.672Z,6.33
2023-04-29T08:16:42.633Z,11.63
2023-04-29T08:19:10.674Z,7.47
2023-04-29T08:21:38.567Z,6.77
2023-04-29T08:24:06.761Z,8.03
2023-04-29T08:26:34.699Z,6.73
2023-04-29T08:29:04.079Z,7.27
2023-04-29T08:31:32.270Z,7.63
2023-04-29T08:34:00.195Z,6.30
2023-04-29T08:36:28.767Z,7.50
2023-04-29T08:38:56.743Z,7.90
2023-04-29T08:41:25.366Z,6.57
2023-04-29T08:43:53.339Z,7.23
2023-04-29T08:46:23.307Z,6.90
2023-04-29T08:48:51.697Z,7.70
2023-04-29T08:51:19.918Z,6.77
2023-04-29T08:53:47.813Z,8.43
2023-04-29T08:56:20.635Z,6.73
2023-04-29T08:58:49.662Z,5.60
2023-04-29T09:01:17.601Z,5.00
2023-04-29T09:03:52.905Z,7.40
2023-04-29T09:06:21.580Z,7.60
2023-04-29T09:08:49.696Z,7.23
2023-04-29T09:11:17.943Z,5.80
2023-04-29T09:13:45.989Z,7.30
2023-04-29T09:16:14.438Z,8.50
2023-04-29T09:18:48.401Z,6.87
2023-04-29T09:21:21.063Z,7.43
2023-04-29T09:23:51.123Z,6.80
2023-04-29T09:26:19.293Z,6.67
2023-04-29T09:28:47.930Z,7.93
2023-04-29T09:31:15.932Z,6.33
2023-04-29T09:33:55.615Z,7.60
2023-04-29T09:36:41.134Z,7.43
2023-04-29T09:39:12.587Z,5.00
2023-04-29T09:41:42.008Z,7.40
2023-04-29T09:44:10.670Z,9.13
2023-04-29T09:46:38.962Z,6.20
2023-04-29T09:49:24.944Z,7.43
2023-04-29T09:51:57.557Z,5.07
2023-04-29T09:54:28.494Z,6.97
2023-04-29T09:56:57.868Z,5.47
2023-04-29T09:59:26.401Z,8.60
2023-04-29T10:01:56.317Z,5.93
2023-04-29T10:04:28.036Z,7.90
2023-04-29T10:06:57.185Z,10.20
2023-04-29T10:09:25.592Z,7.63
2023-04-29T10:11:54.845Z,6.53
2023-04-29T10:14:24.318Z,6.53
2023-04-29T10:17:00.438Z,6.80
2023-04-29T10:19:36.286Z,7.57
2023-04-29T10:22:10.646Z,7.37
2023-04-29T10:24:39.176Z,5.20
2023-04-29T10:27:08.840Z,7.70
2023-04-29T10:29:38.797Z,5.07
2023-04-29T10:32:09.874Z,7.17
2023-04-29T10:34:40.610Z,7.93
2023-04-29T10:37:10.369Z,5.37
2023-04-29T10:39:44.225Z,8.20
2023-04-29T10:42:18.470Z,5.97
2023-04-29T10:45:36.135Z,7.77
2023-04-29T10:48:14.929Z,7.33
2023-04-29T10:51:04.781Z,6.03
2023-04-29T10:53:32.927Z,8.63
2023-04-29T10:56:07.682Z,9.83
2023-04-29T10:58:40.546Z,8.00
2023-04-29T11:01:10.616Z,8.33
2023-04-29T11:04:01.478Z,8.10
2023-04-29T11:06:42.438Z,4.93
2023-04-29T11:09:12.993Z,5.17
2023-04-29T11:11:49.055Z,6.57
2023-04-29T11:14:22.617Z,6.67
2023-04-29T11:16:53.296Z,8.63
2023-04-29T11:19:22.210Z,8.73
2023-04-29T11:22:05.947Z,5.80
2023-04-29T11:24:36.012Z,6.00
2023-04-29T11:27:05.685Z,5.57
2023-04-29T11:29:34.672Z,6.87
2023-04-29T11:32:03.864Z,6.67
2023-04-29T11:34:32.247Z,7.63
2023-04-29T11:37:01.622Z,8.60
2023-04-29T11:39:30.163Z,6.73
2023-04-29T11:42:05.058Z,4.87
2023-04-29T11:44:35.678Z,6.17
2023-04-29T11:47:04.394Z,5.00
2023-04-29T11:49:33.770Z,3.70
2023-04-29T11:52:03.445Z,3.67
2023-04-29T11:54:32.081Z,8.67
2023-04-29T11:57:00.951Z,5.10
2023-04-29T11:59:29.468Z,5.17
2023-04-29T12:01:57.469Z,4.70
2023-04-29T12:04:25.667Z,5.63
2023-04-29T12:06:54.041Z,5.43
2023-04-29T12:09:23.575Z,4.83
2023-04-29T12:11:51.688Z,5.03
2023-04-29T12:14:20.430Z,5.17
2023-04-29T12:16:48.369Z,3.83
2023-04-29T12:19:16.540Z,3.47
2023-04-29T12:21:52.406Z,3.60
2023-04-29T12:24:23.252Z,3.63
2023-04-29T12:26:51.207Z,3.90
2023-04-29T12:29:22.508Z,4.77
2023-04-29T12:31:51.498Z,4.33
2023-04-29T12:34:19.687Z,4.20
2023-04-29T12:36:47.623Z,6.13
2023-04-29T12:39:15.989Z,5.57
2023-04-29T12:41:45.324Z,4.83
2023-04-29T12:44:13.382Z,4.60
2023-04-29T12:46:42.584Z,5.37
2023-04-29T12:49:10.535Z,4.20
2023-04-29T12:51:38.468Z,3.40
2023-04-29T12:54:07.405Z,3.90
2023-04-29T12:56:35.434Z,6.03
2023-04-29T12:59:08.557Z,4.97
2023-04-29T13:01:36.732Z,2.33
2023-04-29T13:04:06.236Z,2.87
2023-04-29T13:06:34.852Z,2.77
2023-04-29T13:09:03.221Z,2.77
2023-04-29T13:11:34.424Z,2.70
2023-04-29T13:14:02.728Z,4.33
2023-04-29T13:16:32.468Z,4.57
2023-04-29T13:19:13.116Z,2.77
2023-04-29T13:21:48.768Z,1.73
2023-04-29T13:24:18.360Z,2.77
2023-04-29T13:26:49.664Z,3.07
2023-04-29T13:29:18.951Z,2.63
2023-04-29T13:31:48.294Z,2.07
2023-04-29T13:34:16.343Z,4.97
2023-04-29T13:36:44.432Z,2.20
2023-04-29T13:39:12.437Z,1.60
2023-04-29T13:41:42.201Z,3.83
2023-04-29T13:46:44.552Z,3.93
2023-04-29T13:52:26.238Z,2.27
2023-04-29T13:57:50.066Z,1.70
2023-04-29T13:59:55.202Z,1.83
2023-04-29T14:02:25.392Z,1.60
2023-04-29T14:04:55.806Z,2.30
2023-04-29T14:07:24.009Z,6.93
2023-04-29T14:09:51.938Z,3.47
2023-04-29T14:12:19.909Z,2.47
2023-04-29T14:14:47.850Z,1.47
2023-04-29T14:17:16.259Z,2.43
2023-04-29T14:19:44.235Z,2.43
2023-04-29T14:22:13.506Z,3.17
2023-04-29T14:24:41.408Z,2.23
2023-04-29T14:27:09.342Z,1.83
2023-04-29T14:29:37.561Z,2.20
2023-04-29T14:32:07.396Z,1.73
2023-04-29T14:34:35.321Z,3.23
2023-04-29T14:37:03.214Z,1.10
2023-04-29T14:39:32.528Z,1.80
2023-04-29T14:42:02.288Z,1.00
2023-04-29T14:44:31.616Z,3.10
2023-04-29T14:46:59.584Z,2.07
2023-04-29T14:49:28.178Z,1.97
2023-04-29T14:51:57.507Z,4.30
2023-04-29T14:54:27.142Z,2.37
2023-04-29T14:56:56.414Z,1.30
2023-04-29T14:59:24.328Z,2.97
2023-04-29T15:01:52.256Z,4.53
2023-04-29T15:04:20.260Z,4.37
2023-04-29T15:06:48.236Z,1.57
2023-04-29T15:09:16.234Z,1.70
2023-04-29T15:11:44.310Z,1.20
2023-04-29T15:14:13.625Z,1.83
2023-04-29T15:16:41.665Z,2.87
2023-04-29T15:19:09.693Z,4.03
2023-04-29T15:21:37.612Z,2.23
2023-04-29T15:24:07.434Z,3.53
2023-04-29T15:26:35.446Z,1.47
2023-04-29T15:29:03.515Z,2.70
2023-04-29T15:31:32.843Z,1.63
2023-04-29T15:34:00.867Z,1.10
2023-04-29T15:36:30.852Z,1.67
2023-04-29T15:38:58.888Z,1.10
2023-04-29T15:41:27.228Z,1.30
2023-04-29T15:43:55.661Z,3.83
2023-04-29T15:46:23.603Z,1.70
2023-04-29T15:48:52.987Z,1.97
2023-04-29T15:51:20.992Z,2.33
2023-04-29T15:53:50.834Z,1.07
2023-04-29T15:56:18.789Z,1.30
2023-04-29T15:58:46.676Z,1.70
2023-04-29T16:01:14.574Z,2.23
2023-04-29T16:03:42.734Z,1.87
2023-04-29T16:06:12.433Z,2.63
2023-04-29T16:08:40.324Z,1.63
2023-04-29T16:11:08.241Z,2.03
2023-04-29T16:13:36.623Z,4.07
2023-04-29T16:16:04.796Z,2.77
2023-04-29T16:18:33.762Z,1.20
2023-04-29T16:21:02.782Z,2.53
2023-04-29T16:23:32.173Z,3.70
2023-04-29T16:26:01.187Z,3.10
2023-04-29T16:28:29.103Z,3.67
2023-04-29T16:30:57.013Z,3.37
2023-04-29T16:33:24.923Z,4.10
2023-04-29T16:35:54.040Z,4.73
2023-04-29T16:38:21.939Z,2.43
2023-04-29T16:40:51.362Z,3.90
2023-04-29T16:43:19.473Z,4.97
2023-04-29T16:45:47.396Z,4.30
2023-04-29T16:48:15.499Z,2.67
2023-04-29T16:50:43.553Z,3.80
2023-04-29T16:53:11.476Z,3.83
2023-04-29T16:55:39.545Z,1.47
2023-04-29T16:58:09.398Z,2.90
2023-04-29T17:00:37.328Z,3.10
2023-04-29T17:03:06.249Z,2.27
2023-04-29T17:05:34.448Z,4.20
2023-04-29T17:08:03.450Z,3.40
2023-04-29T17:10:31.404Z,4.13
2023-04-29T17:12:59.510Z,4.50
2023-04-29T17:15:29.905Z,2.70
2023-04-29T17:17:57.856Z,3.43
2023-04-29T17:20:25.822Z,5.77
2023-04-29T17:22:53.772Z,3.67
2023-04-29T17:25:22.502Z,2.70
2023-04-29T17:27:50.757Z,4.47
2023-04-29T17:30:19.080Z,2.57
2023-04-29T17:32:49.921Z,2.23
2023-04-29T17:35:18.105Z,6.40
2023-04-29T17:37:46.351Z,3.63
2023-04-29T17:40:14.309Z,4.60
2023-04-29T17:42:42.164Z,3.40
2023-04-29T17:45:11.380Z,4.67
2023-04-29T17:47:39.481Z,2.90
2023-04-29T17:50:09.804Z,2.27
2023-04-29T17:52:37.831Z,3.60
2023-04-29T17:55:06.501Z,4.60
2023-04-29T17:57:34.394Z,3.83
2023-04-29T18:00:02.335Z,3.70
2023-04-29T18:02:30.359Z,1.90
2023-04-29T18:04:58.291Z,3.13
2023-04-29T18:07:27.590Z,4.37
2023-04-29T18:09:55.762Z,3.47
2023-04-29T18:12:24.173Z,4.67
2023-04-29T18:14:52.874Z,2.80
2023-04-29T18:17:20.852Z,5.17
2023-04-29T18:19:49.743Z,3.03
2023-04-29T18:22:17.776Z,3.30
2023-04-29T18:24:48.511Z,4.13
2023-04-29T18:27:16.489Z,3.27
2023-04-29T18:29:45.841Z,4.53
2023-04-29T18:32:13.771Z,1.57
2023-04-29T18:34:42.405Z,4.60
2023-04-29T18:37:10.383Z,4.80
2023-04-29T18:39:38.300Z,1.30
2023-04-29T18:42:09.731Z,4.67
2023-04-29T18:44:37.728Z,3.73
2023-04-29T18:47:05.850Z,2.33
2023-04-29T18:49:34.761Z,6.83
2023-04-29T18:52:03.705Z,2.50
2023-04-29T18:54:31.960Z,4.77
2023-04-29T18:57:00.016Z,4.17
2023-04-29T18:59:29.693Z,3.20
2023-04-29T19:01:57.805Z,2.30
2023-04-29T19:04:25.855Z,3.50
2023-04-29T19:06:54.013Z,4.57
2023-04-29T19:09:22.098Z,5.07
2023-04-29T19:11:50.106Z,3.00
2023-04-29T19:14:18.081Z,2.63
2023-04-29T19:16:47.449Z,3.67
2023-04-29T19:19:15.569Z,3.20
2023-04-29T19:21:43.875Z,2.87
2023-04-29T19:24:11.830Z,4.47
2023-04-29T19:26:40.423Z,4.67
2023-04-29T19:29:27.916Z,5.20
2023-04-29T19:31:58.542Z,3.73
2023-04-29T19:34:26.512Z,3.23
2023-04-29T19:36:54.474Z,4.07
2023-04-29T19:39:22.419Z,4.10
2023-04-29T19:41:53.180Z,3.83
2023-04-29T19:44:21.107Z,5.67
2023-04-29T19:46:51.344Z,4.50
2023-04-29T19:49:21.230Z,1.27
2023-04-29T19:51:49.191Z,3.73
2023-04-29T19:54:17.727Z,4.03
2023-04-29T19:56:45.605Z,3.93
2023-04-29T19:59:14.294Z,4.07
2023-04-29T20:01:42.504Z,7.60
2023-04-29T20:04:12.562Z,5.43
2023-04-29T20:06:42.267Z,1.53
2023-04-29T20:09:11.272Z,3.50
2023-04-29T20:11:39.174Z,3.93
2023-04-29T20:14:07.183Z,4.63
2023-04-29T20:16:35.591Z,6.73
2023-04-29T20:19:03.938Z,3.93
2023-04-29T20:21:32.582Z,3.97
2023-04-29T20:24:01.927Z,5.23
2023-04-29T20:26:30.085Z,2.43
2023-04-29T20:28:58.344Z,2.10
2023-04-29T20:31:26.275Z,2.10
2023-04-29T20:33:54.809Z,7.80
2023-04-29T20:36:23.335Z,2.17
2023-04-29T20:38:52.320Z,2.50
2023-04-29T20:41:21.645Z,3.73
2023-04-29T20:43:49.589Z,5.30
2023-04-29T20:46:17.910Z,3.93
2023-04-29T20:48:54.805Z,1.83
2023-04-29T20:51:22.811Z,3.87
2023-04-29T20:53:50.724Z,5.50
2023-04-29T20:56:18.626Z,5.77
2023-04-29T20:58:47.914Z,6.93
2023-04-29T21:01:15.981Z,3.60
2023-04-29T21:03:43.982Z,6.07
2023-04-29T21:06:11.908Z,6.63
2023-04-29T21:08:39.808Z,2.33
2023-04-29T21:11:09.635Z,3.90
2023-04-29T21:13:37.952Z,4.87
2023-04-29T21:16:07.543Z,4.80
2023-04-29T21:18:35.387Z,4.33
2023-04-29T21:21:03.357Z,3.33
2023-04-29T21:23:31.233Z,3.07
2023-04-29T21:25:59.130Z,2.07
2023-04-29T21:28:27.120Z,5.43
2023-04-29T21:30:55.026Z,3.83
2023-04-29T21:33:24.485Z,2.77
2023-04-29T21:35:52.467Z,1.17
2023-04-29T21:38:20.427Z,3.13
2023-04-29T21:40:53.827Z,4.87
2023-04-29T21:43:21.704Z,2.70
2023-04-29T21:45:50.185Z,6.13
2023-04-29T21:48:20.226Z,3.10
2023-04-29T21:50:49.667Z,3.73
2023-04-29T21:53:17.853Z,4.57
2023-04-29T21:55:45.760Z,5.40
2023-04-29T21:58:13.635Z,2.93
2023-04-29T22:00:48.015Z,3.57
2023-04-29T22:03:16.184Z,3.53
2023-04-29T22:05:44.218Z,5.07
2023-04-29T22:08:13.484Z,7.93
2023-04-29T22:10:41.690Z,3.50
2023-04-29T22:13:09.729Z,2.97
2023-04-29T22:15:37.662Z,3.40
2023-04-29T22:18:05.661Z,6.57
2023-04-29T22:20:33.711Z,5.23
2023-04-29T22:23:01.692Z,5.80
2023-04-29T22:25:31.133Z,3.70
2023-04-29T22:27:59.024Z,3.60
2023-04-29T22:30:26.927Z,5.50
2023-04-29T22:32:55.086Z,5.60
2023-04-29T22:35:23.102Z,4.43
2023-04-29T22:37:51.063Z,6.97
2023-04-29T22:40:18.978Z,2.73
2023-04-29T22:42:48.260Z,6.47
2023-04-29T22:45:16.360Z,3.37
2023-04-29T22:47:44.305Z,7.43
2023-04-29T22:50:12.441Z,3.87
2023-04-29T22:52:40.717Z,2.90
2023-04-29T22:55:09.463Z,10.77
2023-04-29T22:57:37.358Z,2.23
2023-04-29T23:00:08.072Z,4.00
2023-04-29T23:02:36.051Z,6.77
2023-04-29T23:05:04.250Z,2.00
2023-04-29T23:07:32.256Z,3.67
2023-04-29T23:10:00.178Z,12.03
2023-04-29T23:12:28.112Z,3.23
2023-04-29T23:14:56.152Z,5.73
2023-04-29T23:17:25.582Z,5.20
2023-04-29T23:19:53.814Z,3.17
2023-04-29T23:22:21.839Z,10.27
2023-04-29T23:24:49.745Z,6.33
2023-04-29T23:27:17.659Z,6.80
2023-04-29T23:29:45.545Z,5.63
2023-04-29T23:32:13.420Z,5.87
2023-04-29T23:34:42.748Z,6.47
2023-04-29T23:37:10.623Z,6.57
2023-04-29T23:39:38.504Z,3.73
2023-04-29T23:42:06.436Z,6.03
2023-04-29T23:44:34.489Z,4.50
2023-04-29T23:47:02.421Z,6.50
2023-04-29T23:49:30.319Z,4.33
2023-04-29T23:51:59.623Z,4.63
2023-04-29T23:54:27.534Z,4.83
2023-04-29T23:56:55.464Z,6.87
2023-04-29T23:59:23.359Z,11.87
